createdAt,value
2023-06-11T00:01:36.171Z,20.70
2023-06-11T00:05:39.157Z,20.60
2023-06-11T00:09:43.312Z,20.60
2023-06-11T00:13:47.710Z,20.60
2023-06-11T00:17:50.777Z,20.60
2023-06-11T00:21:54.078Z,20.50
2023-06-11T00:25:58.242Z,20.50
2023-06-11T00:30:04.692Z,20.50
2023-06-11T00:34:07.747Z,20.50
2023-06-11T00:38:11.570Z,20.50
2023-06-11T00:42:14.638Z,20.40
2023-06-11T00:46:19.604Z,20.40
2023-06-11T00:50:23.192Z,20.40
2023-06-11T00:54:26.953Z,20.40
2023-06-11T00:58:30.919Z,20.30
2023-06-11T01:02:41.369Z,20.30
2023-06-11T01:06:47.523Z,20.30
2023-06-11T01:10:50.630Z,20.20
2023-06-11T01:14:55.722Z,20.20
2023-06-11T01:19:20.495Z,20.10
2023-06-11T01:23:34.784Z,20.10
2023-06-11T01:28:04.168Z,20.00
2023-06-11T01:32:08.026Z,20.00
2023-06-11T01:36:12.055Z,20.00
2023-06-11T01:40:15.725Z,20.00
2023-06-11T01:44:21.026Z,19.90
2023-06-11T01:48:24.185Z,19.90
2023-06-11T01:52:27.219Z,19.80
2023-06-11T01:56:33.702Z,19.80
2023-06-11T02:00:38.074Z,19.80
2023-06-11T02:04:41.054Z,19.70
2023-06-11T02:08:44.412Z,19.60
2023-06-11T02:12:47.413Z,19.60
2023-06-11T02:16:51.883Z,19.50
2023-06-11T02:20:54.928Z,19.50
2023-06-11T02:24:58.268Z,19.40
2023-06-11T02:29:01.271Z,19.40
2023-06-11T02:33:05.730Z,19.40
2023-06-11T02:37:09.023Z,19.30
2023-06-11T02:41:12.035Z,19.30
2023-06-11T02:45:15.043Z,19.20
2023-06-11T02:49:19.425Z,19.20
2023-06-11T02:53:22.426Z,19.10
2023-06-11T02:57:25.458Z,19.10
2023-06-11T03:01:28.563Z,19.10
2023-06-11T03:05:33.059Z,19.00
2023-06-11T03:09:36.113Z,19.00
2023-06-11T03:13:39.223Z,18.90
2023-06-11T03:17:42.257Z,18.90
2023-06-11T03:21:46.674Z,18.90
2023-06-11T03:25:49.677Z,18.80
2023-06-11T03:29:52.678Z,18.80
2023-06-11T03:33:55.753Z,18.70
2023-06-11T03:38:00.096Z,18.70
2023-06-11T03:42:03.177Z,18.70
2023-06-11T03:46:06.244Z,18.60
2023-06-11T03:50:10.186Z,18.60
2023-06-11T03:54:14.773Z,18.60
2023-06-11T03:58:17.791Z,18.60
2023-06-11T04:02:20.897Z,18.50
2023-06-11T04:06:24.029Z,18.50
2023-06-11T04:10:28.433Z,18.50
2023-06-11T04:14:31.557Z,18.50
2023-06-11T04:18:34.690Z,18.50
2023-06-11T04:22:37.750Z,18.50
2023-06-11T04:26:42.184Z,18.50
2023-06-11T04:30:46.101Z,18.50
2023-06-11T04:34:50.274Z,18.50
2023-06-11T04:38:53.709Z,18.50
2023-06-11T04:42:58.863Z,18.50
2023-06-11T04:47:02.382Z,18.50
2023-06-11T04:51:05.919Z,18.50
2023-06-11T04:55:11.541Z,18.50
2023-06-11T04:59:16.101Z,18.60
2023-06-11T05:03:19.826Z,18.60
2023-06-11T05:07:24.888Z,18.60
2023-06-11T05:11:28.141Z,18.60
2023-06-11T05:15:33.600Z,18.70
2023-06-11T05:19:36.617Z,18.70
2023-06-11T05:23:40.551Z,18.70
2023-06-11T05:27:55.349Z,18.80
2023-06-11T05:32:01.693Z,18.80
2023-06-11T05:36:06.038Z,18.90
2023-06-11T05:40:10.405Z,18.90
2023-06-11T05:44:13.429Z,19.00
2023-06-11T05:48:18.233Z,19.00
2023-06-11T05:52:21.304Z,19.10
2023-06-11T05:56:24.306Z,19.10
2023-06-11T06:00:27.391Z,19.20
2023-06-11T06:04:31.987Z,19.30
2023-06-11T06:08:35.029Z,19.30
2023-06-11T06:12:41.132Z,19.40
2023-06-11T06:16:44.197Z,19.50
2023-06-11T06:20:48.619Z,19.50
2023-06-11T06:24:51.692Z,19.60
2023-06-11T06:28:55.929Z,19.70
2023-06-11T06:32:59.065Z,19.80
2023-06-11T06:37:03.814Z,19.90
2023-06-11T06:41:06.869Z,20.10
2023-06-11T06:45:11.317Z,20.10
2023-06-11T06:49:14.591Z,20.20
2023-06-11T06:53:19.031Z,20.40
2023-06-11T06:57:22.077Z,20.50
2023-06-11T07:01:25.147Z,20.60
2023-06-11T07:05:28.826Z,20.70
2023-06-11T07:09:33.989Z,20.90
2023-06-11T07:13:37.333Z,21.00
2023-06-11T07:17:40.895Z,21.10
2023-06-11T07:21:44.108Z,21.20
2023-06-11T07:25:50.248Z,21.40
2023-06-11T07:29:53.283Z,21.50
2023-06-11T07:34:07.630Z,21.60
2023-06-11T07:38:10.705Z,21.80
2023-06-11T07:42:15.073Z,22.00
2023-06-11T07:46:33.281Z,22.10
2023-06-11T07:50:36.341Z,22.20
2023-06-11T07:54:39.810Z,22.40
2023-06-11T07:58:44.813Z,22.50
2023-06-11T08:02:50.156Z,22.70
2023-06-11T08:06:55.365Z,22.90
2023-06-11T08:10:58.372Z,23.10
2023-06-11T08:15:02.908Z,23.20
2023-06-11T08:19:05.949Z,23.40
2023-06-11T08:23:09.081Z,23.60
2023-06-11T08:27:13.387Z,23.80
2023-06-11T08:31:17.767Z,23.90
2023-06-11T08:35:21.657Z,24.10
2023-06-11T08:39:24.893Z,24.30
2023-06-11T08:43:27.973Z,24.40
2023-06-11T08:47:33.202Z,24.60
2023-06-11T08:51:38.213Z,24.80
2023-06-11T08:55:42.365Z,25.00
2023-06-11T08:59:46.546Z,25.20
2023-06-11T09:03:51.264Z,25.40
2023-06-11T09:07:55.226Z,25.70
2023-06-11T09:11:59.344Z,25.80
2023-06-11T09:16:02.451Z,26.10
2023-06-11T09:20:09.361Z,26.40
2023-06-11T09:24:13.160Z,26.60
2023-06-11T09:28:16.184Z,26.90
2023-06-11T09:32:33.210Z,27.20
2023-06-11T09:36:39.448Z,27.40
2023-06-11T09:40:46.425Z,27.70
2023-06-11T09:44:50.841Z,27.90
2023-06-11T10:09:18.934Z,29.60
2023-06-11T10:13:31.627Z,29.60
2023-06-11T10:17:34.804Z,29.90
2023-06-11T10:21:42.530Z,30.10
2023-06-11T10:25:55.428Z,30.30
2023-06-11T10:29:58.453Z,30.50
2023-06-11T10:34:05.183Z,30.70
2023-06-11T10:38:13.875Z,30.90
2023-06-11T10:42:24.952Z,31.20
2023-06-11T10:46:28.237Z,31.30
2023-06-11T10:50:33.223Z,31.50
2023-06-11T10:54:38.245Z,31.60
2023-06-11T10:58:43.581Z,31.80
2023-06-11T11:02:47.664Z,32.00
2023-06-11T11:10:57.571Z,32.30
2023-06-11T11:15:03.356Z,32.30
2023-06-11T11:19:06.412Z,32.40
2023-06-11T11:23:09.566Z,32.50
2023-06-11T11:35:26.449Z,32.90
2023-06-11T11:39:29.571Z,33.00
2023-06-11T11:43:38.934Z,33.00
2023-06-11T11:47:47.678Z,33.20
2023-06-11T11:51:55.124Z,33.20
2023-06-11T11:56:05.888Z,33.40
2023-06-11T12:00:11.466Z,33.40
2023-06-11T12:04:16.010Z,33.50
2023-06-11T12:08:19.005Z,33.60
2023-06-11T12:12:22.051Z,33.70
2023-06-11T12:16:25.755Z,33.70
2023-06-11T12:20:30.404Z,33.80
2023-06-11T12:24:34.171Z,33.70
2023-06-11T12:28:38.579Z,33.80
2023-06-11T12:32:43.409Z,33.80
2023-06-11T14:10:31.252Z,34.10
2023-06-11T14:14:36.761Z,34.20
2023-06-11T14:18:42.775Z,34.10
2023-06-11T14:22:46.071Z,34.20
2023-06-11T14:26:49.148Z,34.10
2023-06-11T14:30:53.954Z,34.20
2023-06-11T14:34:57.549Z,34.20
2023-06-11T14:39:00.619Z,34.20
2023-06-11T14:43:03.882Z,34.10
2023-06-11T14:47:08.791Z,34.10
2023-06-11T14:51:11.877Z,34.10
2023-06-11T14:55:14.988Z,34.10
2023-06-11T14:59:18.011Z,34.10
2023-06-11T15:03:22.716Z,34.10
2023-06-11T15:07:34.780Z,34.00
2023-06-11T15:11:38.960Z,33.90
2023-06-11T15:15:42.029Z,33.90
2023-06-11T15:19:46.398Z,33.80
2023-06-11T15:23:49.450Z,33.70
2023-06-11T15:27:52.527Z,33.60
2023-06-11T15:31:58.122Z,33.50
2023-06-11T15:36:02.493Z,33.50
2023-06-11T15:40:06.340Z,33.50
2023-06-11T15:44:09.387Z,33.60
2023-06-11T15:48:12.444Z,33.60
2023-06-11T15:52:16.813Z,33.60
2023-06-11T15:56:20.220Z,33.60
2023-06-11T16:00:23.248Z,33.80
2023-06-11T16:53:17.156Z,33.50
2023-06-11T16:57:21.570Z,33.50
2023-06-11T17:01:25.607Z,33.30
2023-06-11T17:05:28.667Z,33.00
2023-06-11T17:09:31.638Z,32.80
2023-06-11T17:13:36.290Z,32.60
2023-06-11T17:17:39.339Z,32.40
2023-06-11T17:21:42.443Z,32.20
2023-06-11T17:25:46.240Z,32.00
2023-06-11T17:29:50.844Z,31.80
2023-06-11T17:33:53.922Z,31.60
2023-06-11T17:37:57.960Z,31.40
2023-06-11T17:42:01.740Z,31.20
2023-06-11T17:46:06.320Z,31.00
2023-06-11T17:50:11.798Z,30.80
2023-06-11T17:54:15.266Z,30.60
2023-06-11T17:58:18.358Z,30.40
2023-06-11T18:02:22.811Z,30.30
2023-06-11T18:06:25.951Z,30.10
2023-06-11T18:10:29.011Z,29.90
2023-06-11T18:14:32.087Z,29.80
2023-06-11T18:18:36.563Z,29.50
2023-06-11T18:22:39.644Z,29.40
2023-06-11T18:26:42.657Z,29.20
2023-06-11T18:30:45.749Z,29.00
2023-06-11T18:34:50.183Z,28.90
2023-06-11T18:38:53.336Z,28.70
2023-06-11T18:42:56.360Z,28.50
2023-06-11T18:47:02.040Z,28.30
2023-06-11T18:51:06.481Z,28.20
2023-06-11T18:55:10.085Z,28.00
2023-06-11T18:59:13.326Z,27.80
2023-06-11T19:03:16.510Z,27.70
2023-06-11T19:07:21.041Z,27.50
2023-06-11T19:11:24.148Z,27.30
2023-06-11T19:15:28.276Z,27.10
2023-06-11T19:19:31.322Z,27.00
2023-06-11T19:23:35.760Z,26.80
2023-06-11T19:27:38.942Z,26.60
2023-06-11T19:31:41.850Z,26.40
2023-06-11T19:35:44.978Z,26.30
2023-06-11T19:39:49.439Z,26.10
2023-06-11T19:43:52.441Z,25.90
2023-06-11T19:47:55.855Z,25.70
2023-06-11T19:51:58.973Z,25.50
2023-06-11T19:56:03.324Z,25.40
2023-06-11T20:00:07.265Z,25.20
2023-06-11T20:04:10.348Z,25.00
2023-06-11T20:08:14.924Z,24.80
2023-06-11T20:12:19.387Z,24.60
2023-06-11T20:16:26.047Z,24.40
2023-06-11T20:20:29.125Z,24.20
2023-06-11T20:24:32.147Z,24.00
2023-06-11T20:28:36.573Z,23.90
2023-06-11T20:32:39.659Z,23.60
2023-06-11T20:36:42.897Z,23.50
2023-06-11T20:40:46.593Z,23.30
2023-06-11T20:44:51.511Z,23.10
2023-06-11T20:48:54.662Z,22.90
2023-06-11T20:52:57.686Z,22.70
2023-06-11T20:57:00.911Z,22.50
2023-06-11T21:01:06.121Z,22.30
2023-06-11T21:05:09.140Z,22.20
2023-06-11T21:09:12.022Z,22.00
2023-06-11T21:13:15.040Z,21.90
2023-06-11T21:17:19.271Z,21.80
2023-06-11T21:21:22.148Z,21.60
2023-06-11T21:25:24.995Z,21.50
2023-06-11T21:29:28.002Z,21.30
2023-06-11T21:33:32.456Z,21.20
2023-06-11T21:37:35.332Z,21.10
2023-06-11T21:41:38.164Z,20.90
2023-06-11T21:45:41.026Z,20.80
2023-06-11T21:49:45.271Z,20.60
2023-06-11T21:53:48.097Z,20.50
2023-06-11T21:57:51.486Z,20.40
2023-06-11T22:01:54.323Z,20.20
2023-06-11T22:05:58.940Z,20.10
2023-06-11T22:10:02.247Z,20.00
2023-06-11T22:14:05.146Z,19.90
2023-06-11T22:18:08.139Z,19.80
2023-06-11T22:22:12.538Z,19.60
2023-06-11T22:26:15.420Z,19.50
2023-06-11T22:30:18.238Z,19.40
2023-06-11T22:34:21.138Z,19.30
2023-06-11T22:38:25.392Z,19.20
2023-06-11T22:42:28.263Z,19.10
2023-06-11T22:46:31.131Z,19.00
2023-06-11T22:50:35.090Z,18.90
2023-06-11T22:54:39.661Z,18.80
2023-06-11T22:58:42.602Z,18.70
2023-06-11T23:02:45.768Z,18.60
2023-06-11T23:06:51.057Z,18.50
2023-06-11T23:10:55.254Z,18.50
2023-06-11T23:14:58.356Z,18.40
2023-06-11T23:19:02.459Z,18.30
2023-06-11T23:23:06.855Z,18.20
2023-06-11T23:27:13.879Z,18.20
2023-06-11T23:31:21.971Z,18.10
2023-06-11T23:35:25.176Z,18.00
2023-06-11T23:39:29.032Z,18.00
2023-06-11T23:43:33.206Z,17.90
2023-06-11T23:47:36.073Z,17.80
2023-06-11T23:51:41.719Z,17.80
2023-06-11T23:55:44.716Z,17.70
2023-06-11T23:59:50.930Z,17.60
